Time;durP1;ratioP1;P1;durP2;ratioP2;P2;SDS_P1;SDS_P2;PMS_P1;PMS_P2;Temp;Humidity;BMP_temperature;BMP_pressure;BME280_temperature;BME280_humidity;BME280_pressure;Samples;Min_cycle;Max_cycle;Signal;HPM_P1;HPM_P2
2024/01/24 00:01:07;;;;;;;2.03;0.70;;;12.70;99.90;;;;;;5058923;28;20025;-87
2024/01/24 00:03:33;;;;;;;2.55;1.42;;;12.90;99.90;;;;;;5061441;28;20152;-87
2024/01/24 00:05:58;;;;;;;2.67;0.90;;;12.40;99.90;;;;;;5057050;28;20025;-87
2024/01/24 00:08:24;;;;;;;1.85;0.90;;;12.40;99.90;;;;;;5053932;28;20036;-88
2024/01/24 00:10:50;;;;;;;1.80;1.05;;;12.40;99.90;;;;;;5050753;28;20021;-87
2024/01/24 00:13:15;;;;;;;2.55;0.90;;;12.40;99.90;;;;;;5050861;28;20021;-86
2024/01/24 00:15:41;;;;;;;1.95;1.00;;;12.30;99.90;;;;;;5051505;28;20029;-86
2024/01/24 00:18:06;;;;;;;3.25;1.00;;;12.70;99.90;;;;;;5051462;28;20074;-87
2024/01/24 00:20:32;;;;;;;2.22;1.08;;;12.20;99.90;;;;;;5052563;28;20373;-87
2024/01/24 00:22:57;;;;;;;2.30;1.10;;;12.20;99.90;;;;;;5052540;28;20035;-87
2024/01/24 00:25:24;;;;;;;3.35;1.02;;;12.20;99.90;;;;;;5051338;28;20040;-87
2024/01/24 00:27:49;;;;;;;4.47;1.20;;;12.20;99.90;;;;;;5052268;28;20036;-86
2024/01/24 00:30:15;;;;;;;4.40;1.10;;;12.20;99.90;;;;;;5051224;28;20021;-87
2024/01/24 00:32:40;;;;;;;1.95;1.13;;;12.20;99.90;;;;;;5037115;28;20524;-87
2024/01/24 00:35:06;;;;;;;3.45;0.95;;;13.00;99.90;;;;;;5032793;28;20381;-86
2024/01/24 00:37:32;;;;;;;3.35;1.05;;;12.10;99.90;;;;;;5039109;28;20061;-87
2024/01/24 00:39:57;;;;;;;1.00;0.77;;;12.20;99.90;;;;;;5038380;28;20029;-86
2024/01/24 00:42:23;;;;;;;1.95;1.20;;;12.10;99.90;;;;;;5040702;28;20029;-86
2024/01/24 00:44:50;;;;;;;3.58;1.45;;;12.10;99.90;;;;;;5039655;28;20036;-85
2024/01/24 00:47:17;;;;;;;4.45;1.55;;;12.10;99.90;;;;;;5041458;28;20029;-87
2024/01/24 00:49:42;;;;;;;2.15;1.35;;;11.70;99.90;;;;;;5035981;28;20033;-86
2024/01/24 00:52:08;;;;;;;4.35;1.45;;;12.10;99.90;;;;;;5035939;28;20432;-87
2024/01/24 00:54:34;;;;;;;4.10;1.15;;;12.10;99.90;;;;;;5038654;28;20044;-89
2024/01/24 00:57:00;;;;;;;5.47;1.60;;;12.10;99.90;;;;;;5039703;28;20140;-91
2024/01/24 00:59:26;;;;;;;4.38;1.40;;;12.10;99.90;;;;;;5037601;28;20440;-92
2024/01/24 01:01:51;;;;;;;1.67;1.25;;;12.10;99.90;;;;;;5039693;28;20488;-86
2024/01/24 01:04:17;;;;;;;3.05;1.80;;;12.10;99.90;;;;;;5041039;28;20033;-85
2024/01/24 01:06:43;;;;;;;5.30;1.60;;;12.90;99.90;;;;;;5040233;28;20043;-87
2024/01/24 01:09:08;;;;;;;2.72;1.33;;;12.10;99.90;;;;;;5034616;28;20112;-88
2024/01/24 01:11:34;;;;;;;1.90;1.80;;;12.10;99.90;;;;;;5039632;28;20357;-85
2024/01/24 01:13:59;;;;;;;6.95;2.15;;;12.10;99.90;;;;;;5037114;28;20365;-86
2024/01/24 01:16:25;;;;;;;4.45;1.67;;;12.10;99.90;;;;;;5038985;28;20523;-87
2024/01/24 01:18:50;;;;;;;2.47;1.75;;;12.00;99.90;;;;;;5042297;28;20056;-86
2024/01/24 01:21:16;;;;;;;2.10;1.60;;;12.10;99.90;;;;;;5040326;28;20095;-86
2024/01/24 01:23:41;;;;;;;5.80;2.22;;;12.10;99.90;;;;;;5040191;28;20029;-86
2024/01/24 01:26:07;;;;;;;4.68;1.55;;;12.00;99.90;;;;;;5041675;28;20021;-86
2024/01/24 01:28:32;;;;;;;3.05;1.38;;;12.00;99.90;;;;;;5035078;28;20501;-86
2024/01/24 01:30:58;;;;;;;2.88;1.60;;;12.00;99.90;;;;;;5037903;28;20029;-86
2024/01/24 01:33:24;;;;;;;2.53;1.38;;;12.00;99.90;;;;;;5029778;28;20464;-89
2024/01/24 01:35:49;;;;;;;3.13;1.20;;;12.00;99.90;;;;;;5033137;28;20044;-90
2024/01/24 01:38:15;;;;;;;1.40;1.30;;;12.00;99.90;;;;;;5036841;28;20041;-90
2024/01/24 01:40:40;;;;;;;3.00;1.50;;;12.00;99.90;;;;;;5045744;28;20030;-94
2024/01/24 01:43:17;;;;;;;2.75;1.08;;;12.00;99.90;;;;;;5057999;28;20381;-94
2024/01/24 01:46:45;;;;;;;;;;;;;;;;;;;;;
2024/01/24 01:49:34;;;;;;;3.65;1.55;;;11.90;99.90;;;;;;4953871;28;20042;-90
2024/01/24 01:52:59;;;;;;;3.42;1.30;;;13.20;99.90;;;;;;4968136;28;20042;-92
2024/01/24 01:56:23;;;;;;;8.18;1.35;;;11.80;99.90;;;;;;4874639;29;20041;-93
2024/01/24 01:59:27;;;;;;;5.90;2.00;;;11.80;99.90;;;;;;4872445;29;20052;-92
2024/01/24 02:02:22;;;;;;;4.40;1.15;;;12.00;99.90;;;;;;4871198;29;20069;-92
2024/01/24 02:05:15;;;;;;;5.63;1.45;;;12.10;99.90;;;;;;4877053;29;20461;-93
2024/01/24 02:17:05;;;;;;;;;;;;;;;;;;;;;
2024/01/24 02:19:36;;;;;;;5.80;1.50;;;12.20;99.90;;;;;;4896926;29;20043;-89
2024/01/24 02:22:42;;;;;;;;;;;;;;;;;;;;;
2024/01/24 02:26:04;;;;;;;6.72;1.80;;;12.20;99.90;;;;;;4888555;29;20087;-90
2024/01/24 02:29:24;;;;;;;8.05;1.88;;;11.90;99.90;;;;;;4899466;29;20051;-91
2024/01/24 02:32:40;;;;;;;7.30;1.60;;;12.10;99.90;;;;;;4905245;28;20057;-91
2024/01/24 02:35:43;;;;;;;;;;;;;;;;;;;;;
2024/01/24 02:46:06;;;;;;;;;;;;;;;;;;;;;
2024/01/24 02:49:01;;;;;;;13.13;1.98;;;12.00;99.90;;;;;;4823804;29;20039;-90
2024/01/24 02:52:01;;;;;;;;;;;;;;;;;;;;;
2024/01/24 02:57:48;;;;;;;12.95;2.88;;;11.50;99.90;;;;;;4919943;29;19906;-91
2024/01/24 03:01:21;;;;;;;;;;;;;;;;;;;;;
2024/01/24 03:04:44;;;;;;;11.75;2.65;;;11.50;99.90;;;;;;4946821;28;20035;-91
2024/01/24 03:07:34;;;;;;;7.00;1.50;;;11.80;99.90;;;;;;4961141;28;20050;-90
2024/01/24 03:10:27;;;;;;;15.40;3.08;;;12.90;99.90;;;;;;4963663;28;20411;-91
2024/01/24 03:13:27;;;;;;;14.43;2.88;;;11.80;99.90;;;;;;4953374;28;20487;-90
2024/01/24 03:16:18;;;;;;;18.90;3.20;;;11.10;99.90;;;;;;4870460;29;20045;-90
2024/01/24 03:18:44;;;;;;;15.68;3.03;;;10.70;99.90;;;;;;4872650;29;20037;-90
2024/01/24 03:22:00;;;;;;;19.48;3.33;;;12.50;99.90;;;;;;5010957;28;20512;-90
2024/01/24 03:24:41;;;;;;;23.25;4.50;;;12.50;99.90;;;;;;5039434;28;20105;-90
2024/01/24 03:27:39;;;;;;;18.05;2.92;;;11.60;99.90;;;;;;5044451;28;20028;-90
2024/01/24 03:30:23;;;;;;;15.23;3.25;;;11.30;99.90;;;;;;4959602;28;20071;-91
2024/01/24 03:33:04;;;;;;;20.58;3.80;;;12.30;99.90;;;;;;5032816;28;20052;-90
2024/01/24 03:36:34;;;;;;;19.42;3.92;;;11.50;99.90;;;;;;5039156;28;20327;-90
2024/01/24 03:46:27;;;;;;;;;;;;;;;;;;;;;
2024/01/24 03:50:16;;;;;;;25.67;4.32;;;11.70;99.90;;;;;;4982888;28;20033;-90
2024/01/24 03:53:03;;;;;;;39.28;6.95;;;10.80;99.90;;;;;;4913599;29;20079;-89
2024/01/24 04:02:02;;;;;;;27.08;5.47;;;12.60;99.90;;;;;;4999471;28;20052;-91
2024/01/24 04:05:18;;;;;;;38.15;6.10;;;11.10;99.90;;;;;;5038410;28;20033;-89
2024/01/24 04:08:35;;;;;;;39.13;7.03;;;12.80;99.90;;;;;;5043835;28;20035;-90
2024/01/24 04:11:57;;;;;;;;;;;;;;;;;;;;;
2024/01/24 04:24:52;;;;;;;35.58;6.90;;;11.10;99.90;;;;;;4861472;29;20473;-89
2024/01/24 04:27:39;;;;;;;58.13;8.88;;;11.50;99.90;;;;;;4936402;28;20027;-89
2024/01/24 04:30:08;;;;;;;41.13;7.97;;;12.20;99.90;;;;;;5140224;22;20458;-89
2024/01/24 04:33:38;;;;;;;;;;;;;;;;;;;;;
2024/01/24 04:36:16;;;;;;;47.00;8.40;;;11.90;99.90;;;;;;4999918;28;20042;-89
2024/01/24 04:39:22;;;;;;;;;;;;;;;;;;;;;
2024/01/24 04:42:03;;;;;;;44.60;6.93;;;11.00;99.90;;;;;;4941163;28;20489;-90
2024/01/24 04:48:01;;;;;;;54.55;6.88;;;11.90;99.90;;;;;;4927465;29;20539;-89
2024/01/24 04:50:48;;;;;;;;;;;11.00;99.90;;;;;;4927454;29;20119;-89
2024/01/24 04:53:53;;;;;;;;;;;;;;;;;;;;;
2024/01/24 04:56:54;;;;;;;;;;;;;;;;;;;;;
2024/01/24 04:59:35;;;;;;;46.95;9.60;;;11.00;99.90;;;;;;4998584;28;20050;-90
2024/01/24 05:02:25;;;;;;;42.22;7.05;;;11.00;99.90;;;;;;5004113;28;20119;-90
2024/01/24 05:05:09;;;;;;;52.08;9.18;;;11.10;99.90;;;;;;5003866;28;20030;-89
2024/01/24 05:08:40;;;;;;;42.42;8.27;;;11.10;99.90;;;;;;5057684;28;20047;-91
2024/01/24 05:11:52;;;;;;;53.47;8.38;;;11.10;99.90;;;;;;5068921;28;20055;-90
2024/01/24 05:14:50;;;;;;;;;;;;;;;;;;;;;
2024/01/24 05:17:31;;;;;;;50.90;8.82;;;10.70;99.90;;;;;;5057657;28;20044;-90
2024/01/24 05:20:24;;;;;;;47.42;9.70;;;11.90;99.90;;;;;;5069448;28;20029;-90
2024/01/24 05:22:59;;;;;;;;;;;;;;;;;;;;;
2024/01/24 05:25:38;;;;;;;55.20;9.30;;;12.60;99.90;;;;;;4964853;28;20039;-90
2024/01/24 05:32:04;;;;;;;45.72;7.90;;;11.60;99.90;;;;;;4964172;28;20078;-89
2024/01/24 05:34:55;;;;;;;51.15;7.68;;;9.70;99.90;;;;;;4964387;28;20041;-90
2024/01/24 05:37:21;;;;;;;61.22;10.35;;;10.90;99.90;;;;;;4970801;28;20118;-93
2024/01/24 05:40:13;;;;;;;51.42;8.07;;;11.10;99.90;;;;;;4963871;28;20170;-89
2024/01/24 05:42:39;;;;;;;49.47;9.70;;;9.80;99.90;;;;;;4962861;28;20487;-89
2024/01/24 05:45:26;;;;;;;49.42;8.90;;;10.00;99.90;;;;;;4999210;28;20043;-88
2024/01/24 05:47:52;;;;;;;50.30;9.05;;;10.70;99.90;;;;;;5071149;28;20063;-90
2024/01/24 05:50:41;;;;;;;57.78;10.65;;;11.20;99.90;;;;;;5073211;28;20479;-88
2024/01/24 05:53:33;;;;;;;59.83;10.10;;;11.10;99.90;;;;;;5029053;28;20140;-88
2024/01/24 05:56:24;;;;;;;48.78;9.18;;;10.60;99.90;;;;;;5070237;28;20090;-88
2024/01/24 05:58:50;;;;;;;63.72;10.00;;;10.80;99.90;;;;;;5066952;28;20040;-87
2024/01/24 06:01:34;;;;;;;43.95;8.40;;;11.80;99.90;;;;;;5074174;28;20384;-89
2024/01/24 06:04:24;;;;;;;70.72;11.95;;;11.60;99.90;;;;;;5074995;28;20024;-91
2024/01/24 06:07:00;;;;;;;;;;;;;;;;;;;;;
2024/01/24 06:09:37;;;;;;;59.45;10.18;;;10.90;99.90;;;;;;4996857;28;20086;-90
2024/01/24 06:12:03;;;;;;;63.30;10.50;;;10.70;99.90;;;;;;4996542;28;20052;-89
2024/01/24 06:15:09;;;;;;;;;;;;;;;;;;;;;
2024/01/24 06:22:01;;;;;;;51.90;9.30;;;10.70;99.90;;;;;;4927631;29;20242;-92
2024/01/24 06:24:56;;;;;;;57.75;9.98;;;10.50;99.90;;;;;;4938073;28;20036;-92
2024/01/24 06:28:02;;;;;;;;;;;;;;;;;;;;;
2024/01/24 06:30:58;;;;;;;;;;;;;;;;;;;;;
2024/01/24 06:37:51;;;;;;;66.13;10.57;;;10.30;99.90;;;;;;5021075;28;20534;-93
2024/01/24 06:41:26;;;;;;;;;;;;;;;;;;;;;
2024/01/24 06:50:46;;;;;;;;;;;;;;;;;;;;;
2024/01/24 06:56:22;;;;;;;60.88;11.07;;;10.20;99.90;;;;;;5157421;22;20051;-91
2024/01/24 07:02:03;;;;;;;61.15;10.23;;;10.10;99.90;;;;;;4981847;28;20031;-93
2024/01/24 07:04:50;;;;;;;54.30;10.45;;;9.50;99.90;;;;;;5021842;22;20049;-94
2024/01/24 07:10:03;;;;;;;52.67;9.77;;;10.00;99.90;;;;;;5089404;22;20040;-92
2024/01/24 07:12:30;;;;;;;58.05;11.80;;;10.00;99.90;;;;;;5045907;28;20206;-92
2024/01/24 07:15:18;;;;;;;54.58;10.02;;;10.90;99.90;;;;;;5068823;28;20025;-92
2024/01/24 07:18:22;;;;;;;59.28;9.73;;;10.70;99.90;;;;;;5074084;28;20024;-92
2024/01/24 07:21:09;;;;;;;78.35;11.55;;;10.00;99.90;;;;;;5067401;28;20392;-90
2024/01/24 07:24:10;;;;;;;;;;;;;;;;;;;;;
2024/01/24 07:26:57;;;;;;;;;;;9.60;99.90;;;;;;5048297;28;20037;-92
2024/01/24 07:29:25;;;;;;;70.78;10.95;;;10.30;99.90;;;;;;5068632;28;19940;-92
2024/01/24 07:32:15;;;;;;;52.90;9.40;;;10.60;99.90;;;;;;5077486;28;20388;-94
2024/01/24 07:35:11;;;;;;;52.25;10.00;;;9.20;99.90;;;;;;5090290;28;20035;-94
2024/01/24 07:37:52;;;;;;;53.95;9.77;;;9.80;99.90;;;;;;5091615;28;20528;-94
2024/01/24 07:40:39;;;;;;;48.03;8.70;;;10.90;99.90;;;;;;5068817;28;20035;-96
2024/01/24 07:43:06;;;;;;;58.17;10.27;;;9.90;99.90;;;;;;5054862;28;20028;-93
2024/01/24 07:45:54;;;;;;;46.45;8.48;;;10.70;99.90;;;;;;5061504;28;20564;-91
2024/01/24 07:48:19;;;;;;;61.97;9.88;;;9.90;99.90;;;;;;5059168;28;20032;-92
2024/01/24 07:51:04;;;;;;;60.97;9.93;;;11.20;99.90;;;;;;5061774;28;20047;-93
2024/01/24 07:53:30;;;;;;;57.03;8.55;;;11.10;99.90;;;;;;5063501;28;20029;-93
2024/01/24 07:56:16;;;;;;;63.58;10.60;;;10.80;99.90;;;;;;5063798;28;20033;-92
2024/01/24 07:59:06;;;;;;;53.05;9.65;;;11.30;99.90;;;;;;5065663;28;20043;-94
2024/01/24 08:01:32;;;;;;;57.40;9.53;;;9.50;99.90;;;;;;5061028;28;20025;-91
2024/01/24 08:04:31;;;;;;;50.50;8.13;;;11.00;99.90;;;;;;5068598;28;20051;-94
2024/01/24 08:10:23;;;;;;;50.13;8.18;;;10.20;99.90;;;;;;5190761;22;20263;-93
2024/01/24 08:16:03;;;;;;;47.80;9.10;;;10.80;99.90;;;;;;5090578;28;20037;-94
2024/01/24 08:18:29;;;;;;;61.20;8.93;;;10.10;99.90;;;;;;5076018;28;20028;-94
2024/01/24 08:23:45;;;;;;;52.22;8.73;;;10.60;99.90;;;;;;5021216;28;20492;-93
2024/01/24 08:26:10;;;;;;;57.60;9.65;;;9.50;99.90;;;;;;5013463;28;20042;-92
2024/01/24 08:31:29;;;;;;;48.28;7.93;;;10.10;99.90;;;;;;5623970;22;20056;-94
2024/01/24 08:33:55;;;;;;;50.95;9.60;;;10.40;99.90;;;;;;5355014;22;20052;-94
2024/01/24 08:36:48;;;;;;;64.25;11.30;;;10.50;99.90;;;;;;5094352;28;20035;-93
2024/01/24 08:40:00;;;;;;;;;;;;;;;;;;;;;
2024/01/24 08:42:44;;;;;;;55.78;9.18;;;9.00;99.90;;;;;;4971711;28;20030;-93
2024/01/24 08:46:00;;;;;;;48.95;9.43;;;9.10;99.90;;;;;;5145421;22;20078;-92
2024/01/24 08:48:51;;;;;;;47.70;8.93;;;9.80;99.90;;;;;;5075456;28;20033;-91
2024/01/24 08:51:17;;;;;;;58.15;9.52;;;9.70;99.90;;;;;;5091829;28;20136;-90
2024/01/24 08:54:04;;;;;;;64.30;10.13;;;10.70;99.90;;;;;;5087487;28;20086;-90
2024/01/24 08:56:31;;;;;;;59.72;10.68;;;9.90;99.90;;;;;;5086377;28;20070;-92
2024/01/24 08:58:57;;;;;;;57.58;9.13;;;10.50;99.90;;;;;;5090700;28;20052;-91
2024/01/24 09:01:45;;;;;;;59.08;10.05;;;10.60;99.90;;;;;;5091744;28;20059;-90
2024/01/24 09:04:12;;;;;;;50.05;9.20;;;8.90;99.90;;;;;;5092938;28;20460;-90
2024/01/24 09:06:59;;;;;;;57.05;9.55;;;11.00;99.90;;;;;;5092313;28;20408;-90
2024/01/24 09:09:25;;;;;;;47.88;9.50;;;9.50;99.90;;;;;;5092221;28;20032;-89
2024/01/24 09:12:12;;;;;;;53.47;9.95;;;10.90;99.90;;;;;;5091827;28;20542;-89
2024/01/24 09:14:37;;;;;;;54.30;9.98;;;11.30;99.90;;;;;;5093563;28;20028;-88
2024/01/24 09:17:03;;;;;;;61.58;10.25;;;9.70;99.90;;;;;;5089841;28;20119;-88
2024/01/24 09:19:53;;;;;;;81.47;10.95;;;9.70;99.90;;;;;;5076345;28;20017;-89
2024/01/24 09:22:19;;;;;;;;;;;9.70;99.90;;;;;;5100226;28;20024;-92
2024/01/24 09:24:45;;;;;;;58.28;10.93;;;10.80;99.90;;;;;;5097475;28;20074;-92
2024/01/24 09:27:32;;;;;;;52.45;8.27;;;10.10;99.90;;;;;;5082721;28;20380;-89
2024/01/24 09:29:57;;;;;;;63.65;11.90;;;9.80;99.90;;;;;;5071297;28;20119;-88
2024/01/24 09:32:46;;;;;;;59.97;11.23;;;9.80;99.90;;;;;;5073996;28;20065;-89
2024/01/24 09:35:12;;;;;;;59.97;10.07;;;9.70;99.90;;;;;;5092500;28;20099;-93
2024/01/24 09:38:04;;;;;;;64.28;11.15;;;10.50;99.90;;;;;;5103719;28;20062;-94
2024/01/24 09:41:00;;;;;;;57.35;10.00;;;9.70;99.90;;;;;;5097818;28;20093;-95
2024/01/24 09:43:48;;;;;;;55.83;9.80;;;9.70;99.90;;;;;;5014228;28;20022;-92
2024/01/24 09:46:45;;;;;;;58.65;9.90;;;9.00;99.90;;;;;;5014439;28;20038;-94
2024/01/24 09:49:11;;;;;;;69.45;11.60;;;9.80;99.90;;;;;;4932421;29;20502;-92
2024/01/24 09:52:00;;;;;;;56.15;8.60;;;9.00;99.90;;;;;;4933673;29;20807;-91
2024/01/24 09:54:28;;;;;;;57.13;10.38;;;9.80;99.90;;;;;;4987681;28;20034;-93
2024/01/24 09:56:54;;;;;;;66.20;10.85;;;10.60;99.90;;;;;;5012236;28;20038;-87
2024/01/24 09:59:20;;;;;;;59.67;11.07;;;9.90;99.90;;;;;;5134313;22;20048;-89
2024/01/24 10:01:46;;;;;;;55.92;10.63;;;10.90;99.90;;;;;;5074920;28;20033;-89
2024/01/24 10:04:15;;;;;;;52.47;10.27;;;10.00;99.90;;;;;;5083809;28;20031;-87
2024/01/24 10:06:58;;;;;;;58.20;9.68;;;10.30;99.90;;;;;;5085767;28;20403;-88
2024/01/24 10:09:27;;;;;;;60.47;10.35;;;10.30;99.90;;;;;;5089528;28;20576;-88
2024/01/24 10:11:52;;;;;;;61.45;10.80;;;10.50;99.90;;;;;;5084373;28;20024;-84
2024/01/24 10:14:18;;;;;;;73.95;10.50;;;10.10;99.90;;;;;;5088414;28;20034;-84
2024/01/24 10:16:45;;;;;;;59.05;9.80;;;10.10;99.90;;;;;;5088266;28;20153;-91
2024/01/24 10:19:11;;;;;;;58.28;10.27;;;10.10;99.90;;;;;;5088803;28;20105;-88
2024/01/24 10:21:39;;;;;;;55.00;8.63;;;10.20;99.90;;;;;;5089755;28;20070;-88
2024/01/24 10:24:05;;;;;;;54.88;9.18;;;10.10;99.90;;;;;;5092764;28;20043;-88
2024/01/24 10:26:31;;;;;;;47.95;8.88;;;10.10;99.90;;;;;;5074631;28;20500;-87
2024/01/24 10:28:56;;;;;;;61.03;8.77;;;10.20;99.90;;;;;;5071297;28;20029;-88
2024/01/24 10:31:23;;;;;;;52.22;11.15;;;10.20;99.90;;;;;;5072184;28;20033;-87
2024/01/24 10:33:54;;;;;;;51.40;8.77;;;10.20;99.90;;;;;;5071497;28;20079;-88
2024/01/24 10:36:19;;;;;;;;;;;10.20;99.90;;;;;;5080528;28;20576;-88
2024/01/24 10:38:48;;;;;;;48.60;8.45;;;10.20;99.90;;;;;;5092637;28;20007;-87
2024/01/24 10:41:16;;;;;;;59.92;9.38;;;10.70;99.90;;;;;;5086536;28;20494;-88
2024/01/24 10:43:50;;;;;;;56.97;9.85;;;10.30;99.90;;;;;;5093905;28;20024;-87
2024/01/24 10:46:16;;;;;;;53.83;8.50;;;10.30;99.90;;;;;;5092880;28;20042;-86
2024/01/24 10:48:42;;;;;;;51.08;8.57;;;10.40;99.90;;;;;;5084874;28;20028;-86
2024/01/24 10:51:08;;;;;;;47.08;8.38;;;10.40;99.90;;;;;;5093022;28;20027;-87
2024/01/24 10:53:35;;;;;;;59.45;8.88;;;10.40;99.90;;;;;;5094429;28;20032;-87
2024/01/24 10:56:02;;;;;;;41.13;7.65;;;10.50;99.90;;;;;;5080314;28;20032;-85
2024/01/24 10:58:29;;;;;;;56.28;9.23;;;10.50;99.90;;;;;;5081811;28;20024;-91
2024/01/24 11:00:55;;;;;;;45.83;8.88;;;10.50;99.90;;;;;;5070147;28;20048;-87
2024/01/24 11:03:21;;;;;;;44.45;8.82;;;10.50;99.90;;;;;;5092919;28;20020;-86
2024/01/24 11:05:55;;;;;;;40.50;7.60;;;10.60;99.90;;;;;;5074948;28;20021;-86
2024/01/24 11:08:29;;;;;;;59.05;8.45;;;10.60;99.90;;;;;;5085107;28;20377;-86
2024/01/24 11:10:57;;;;;;;37.17;7.32;;;10.50;99.90;;;;;;5087778;28;20027;-88
2024/01/24 11:13:25;;;;;;;42.22;8.32;;;11.50;99.90;;;;;;5089863;28;20047;-88
2024/01/24 11:15:54;;;;;;;51.83;8.25;;;10.50;99.90;;;;;;5079038;28;20024;-88
2024/01/24 11:18:21;;;;;;;49.58;8.05;;;10.60;99.90;;;;;;5080781;28;20063;-83
2024/01/24 11:20:48;;;;;;;34.75;6.95;;;10.60;99.90;;;;;;5073802;28;20055;-88
2024/01/24 11:23:40;;;;;;;40.65;7.07;;;10.60;99.90;;;;;;5078749;28;20498;-87
2024/01/24 11:26:09;;;;;;;34.08;7.05;;;10.50;99.90;;;;;;5082981;28;20032;-88
2024/01/24 11:28:35;;;;;;;45.30;7.53;;;10.50;99.90;;;;;;5084368;28;20020;-89
2024/01/24 11:31:02;;;;;;;61.63;9.80;;;10.50;99.90;;;;;;5092964;28;20082;-90
2024/01/24 11:33:28;;;;;;;58.15;7.47;;;10.50;99.90;;;;;;5094341;28;20020;-91
2024/01/24 11:35:55;;;;;;;38.63;7.20;;;10.50;99.90;;;;;;5094565;28;20107;-92
2024/01/24 11:38:22;;;;;;;47.00;7.82;;;11.10;99.90;;;;;;5094546;28;20096;-90
2024/01/24 11:41:38;;;;;;;46.05;9.32;;;10.50;99.90;;;;;;5096515;23;20060;-90
2024/01/24 11:44:11;;;;;;;47.78;8.32;;;10.40;99.90;;;;;;5093576;28;20031;-92
2024/01/24 11:46:56;;;;;;;47.08;7.57;;;11.50;99.90;;;;;;5084324;28;20035;-90
2024/01/24 11:49:24;;;;;;;43.95;7.35;;;11.30;99.90;;;;;;5075860;28;20029;-90
2024/01/24 11:52:01;;;;;;;44.75;8.13;;;10.50;99.90;;;;;;5076845;28;20028;-87
2024/01/24 11:54:26;;;;;;;40.80;8.15;;;11.60;99.90;;;;;;5038251;28;20035;-90
2024/01/24 11:57:12;;;;;;;38.53;6.40;;;11.50;99.90;;;;;;5087918;28;20185;-90
2024/01/24 11:59:38;;;;;;;45.65;7.20;;;10.60;99.90;;;;;;5086257;28;20032;-93
2024/01/24 12:02:06;;;;;;;42.42;7.18;;;12.20;99.90;;;;;;5074841;28;20033;-91
2024/01/24 12:04:35;;;;;;;34.72;6.47;;;11.60;99.90;;;;;;5076777;28;20035;-93
2024/01/24 12:07:01;;;;;;;38.70;7.03;;;11.20;99.90;;;;;;5080012;28;20112;-91
2024/01/24 12:09:27;;;;;;;46.53;8.75;;;12.00;99.90;;;;;;5079154;28;20030;-92
2024/01/24 12:11:52;;;;;;;43.20;7.10;;;11.40;99.90;;;;;;5090153;28;20044;-91
2024/01/24 12:14:19;;;;;;;48.55;8.15;;;11.40;99.90;;;;;;5080182;28;20025;-90
2024/01/24 12:17:04;;;;;;;44.58;7.53;;;11.50;99.90;;;;;;5072223;28;20039;-90
2024/01/24 12:19:30;;;;;;;43.60;7.22;;;10.50;99.90;;;;;;5095383;28;20055;-88
2024/01/24 12:21:57;;;;;;;46.20;7.13;;;11.60;99.90;;;;;;5091065;28;20025;-89
2024/01/24 12:24:42;;;;;;;35.50;7.15;;;11.80;99.90;;;;;;5091478;28;20028;-88
2024/01/24 12:27:08;;;;;;;67.60;7.53;;;10.50;99.90;;;;;;5081483;28;20025;-89
2024/01/24 12:29:34;;;;;;;43.30;7.13;;;10.70;99.90;;;;;;5081415;28;20038;-90
2024/01/24 12:32:21;;;;;;;44.88;7.78;;;11.80;99.90;;;;;;5091415;28;20024;-88
2024/01/24 12:34:47;;;;;;;52.22;7.35;;;9.60;99.90;;;;;;5092147;28;20032;-89
2024/01/24 12:38:08;;;;;;;55.03;8.70;;;11.60;99.90;;;;;;5085606;28;20028;-91
2024/01/24 12:40:33;;;;;;;45.13;6.60;;;10.10;99.90;;;;;;5087525;28;20503;-90
2024/01/24 12:43:00;;;;;;;35.53;8.27;;;10.60;99.90;;;;;;5092495;28;20031;-88
2024/01/24 12:45:27;;;;;;;45.55;7.65;;;11.60;99.90;;;;;;5092873;28;20027;-89
2024/01/24 12:48:13;;;;;;;39.70;7.63;;;10.50;99.90;;;;;;5093114;28;20284;-89
2024/01/24 12:50:38;;;;;;;49.78;8.32;;;11.00;99.90;;;;;;5095447;28;20024;-89
2024/01/24 12:53:04;;;;;;;44.30;8.07;;;11.70;99.90;;;;;;5095115;28;20031;-90
2024/01/24 12:55:30;;;;;;;44.17;7.85;;;10.40;99.90;;;;;;5094574;28;20052;-89
2024/01/24 12:57:55;;;;;;;48.28;7.60;;;11.50;99.90;;;;;;5089581;28;20032;-91
2024/01/24 13:00:21;;;;;;;49.15;8.55;;;10.80;99.90;;;;;;5079132;28;20080;-89
2024/01/24 13:02:59;;;;;;;39.67;8.40;;;10.70;99.90;;;;;;5085083;28;20380;-88
2024/01/24 13:05:25;;;;;;;34.65;6.70;;;10.40;99.90;;;;;;5099315;28;20438;-89
2024/01/24 13:07:51;;;;;;;48.83;8.25;;;11.40;99.90;;;;;;5092637;28;20021;-89
2024/01/24 13:10:17;;;;;;;50.28;7.78;;;11.40;99.90;;;;;;5088640;28;20092;-90
2024/01/24 13:12:43;;;;;;;48.78;8.27;;;10.40;99.90;;;;;;5092811;28;20038;-89
2024/01/24 13:15:09;;;;;;;42.65;7.63;;;10.20;99.90;;;;;;5090749;28;20032;-89
2024/01/24 13:17:54;;;;;;;51.90;8.00;;;11.10;99.90;;;;;;5093236;28;20032;-89
2024/01/24 13:20:20;;;;;;;43.90;6.63;;;11.00;99.90;;;;;;5093096;28;20031;-89
2024/01/24 13:22:45;;;;;;;45.75;7.28;;;11.40;99.90;;;;;;5092188;28;20385;-90
2024/01/24 13:25:11;;;;;;;41.78;7.72;;;11.60;99.90;;;;;;5093013;28;20031;-92
2024/01/24 13:27:55;;;;;;;51.50;7.78;;;11.30;99.90;;;;;;5091616;28;20059;-91
2024/01/24 13:30:21;;;;;;;44.95;8.13;;;11.30;99.90;;;;;;5075254;28;20362;-89
2024/01/24 13:32:46;;;;;;;41.35;8.25;;;10.20;99.90;;;;;;5075458;28;20048;-88
2024/01/24 13:35:12;;;;;;;40.13;6.68;;;10.30;99.90;;;;;;5083084;28;20492;-90
2024/01/24 13:37:38;;;;;;;51.97;8.50;;;10.30;99.90;;;;;;5079342;28;20090;-90
2024/01/24 13:40:08;;;;;;;44.28;7.35;;;10.30;99.90;;;;;;5082713;28;20040;-91
2024/01/24 13:42:34;;;;;;;39.97;6.95;;;10.30;99.90;;;;;;5093133;28;20024;-89
2024/01/24 13:45:00;;;;;;;46.38;7.28;;;10.30;99.90;;;;;;5090181;28;20032;-86
2024/01/24 13:47:25;;;;;;;31.90;6.90;;;10.30;99.90;;;;;;5091776;28;20040;-88
2024/01/24 13:49:51;;;;;;;46.28;7.60;;;10.30;99.90;;;;;;5082067;28;20482;-87
2024/01/24 13:52:16;;;;;;;44.00;7.35;;;10.30;99.90;;;;;;5091441;28;20498;-87
2024/01/24 13:54:42;;;;;;;39.40;6.55;;;10.30;99.90;;;;;;5090624;28;20472;-88
2024/01/24 13:57:08;;;;;;;48.17;8.32;;;10.30;99.90;;;;;;5078705;28;20035;-89
2024/01/24 13:59:33;;;;;;;44.67;7.47;;;10.30;99.90;;;;;;5076480;28;20028;-88
2024/01/24 14:01:59;;;;;;;47.65;7.82;;;10.20;99.90;;;;;;5074675;28;20029;-87
2024/01/24 14:04:24;;;;;;;43.58;6.82;;;10.20;99.90;;;;;;5079695;28;20021;-89
2024/01/24 14:06:50;;;;;;;48.72;8.27;;;10.30;99.90;;;;;;5074952;28;20034;-86
2024/01/24 14:09:16;;;;;;;36.05;7.28;;;10.20;99.90;;;;;;5074866;28;20027;-88
2024/01/24 14:11:42;;;;;;;38.78;6.75;;;10.20;99.90;;;;;;5084940;28;20031;-88
2024/01/24 14:14:07;;;;;;;46.88;8.00;;;10.20;99.90;;;;;;5093564;28;20194;-88
2024/01/24 14:16:33;;;;;;;58.72;8.82;;;10.20;99.90;;;;;;5094854;28;20395;-88
2024/01/24 14:18:59;;;;;;;41.88;7.38;;;10.20;99.90;;;;;;5077369;28;20055;-85
2024/01/24 14:21:25;;;;;;;44.28;7.38;;;10.30;99.90;;;;;;5077752;28;20043;-87
2024/01/24 14:23:51;;;;;;;44.83;7.00;;;10.20;99.90;;;;;;5094712;28;20020;-88
2024/01/24 14:26:17;;;;;;;44.50;7.88;;;10.20;99.90;;;;;;5079132;28;20384;-86
2024/01/24 14:28:42;;;;;;;32.88;7.47;;;10.20;99.90;;;;;;5075447;28;20149;-88
2024/01/24 14:31:08;;;;;;;41.30;7.38;;;10.20;99.90;;;;;;5076541;28;20055;-87
2024/01/24 14:33:33;;;;;;;41.05;8.48;;;10.30;99.90;;;;;;5075411;28;20487;-88
2024/01/24 14:35:59;;;;;;;41.53;7.95;;;10.20;99.90;;;;;;5087244;28;20024;-89
2024/01/24 14:38:24;;;;;;;38.00;6.57;;;10.20;99.90;;;;;;5095663;28;20036;-89
2024/01/24 14:40:51;;;;;;;40.30;6.82;;;10.20;99.90;;;;;;5083413;28;20396;-85
2024/01/24 14:43:17;;;;;;;36.63;7.28;;;10.20;99.90;;;;;;5077550;28;20121;-84
2024/01/24 14:45:43;;;;;;;38.50;7.70;;;10.20;99.90;;;;;;5094175;28;20027;-87
2024/01/24 14:48:09;;;;;;;40.72;8.10;;;10.20;99.90;;;;;;5080617;28;20024;-87
2024/01/24 14:50:36;;;;;;;28.65;5.60;;;10.90;99.90;;;;;;5085132;28;20051;-87
2024/01/24 14:53:03;;;;;;;38.13;6.65;;;10.10;99.90;;;;;;5081917;28;20550;-90
2024/01/24 14:55:31;;;;;;;41.58;7.05;;;10.20;99.90;;;;;;5078132;28;20028;-87
2024/01/24 14:57:59;;;;;;;38.03;7.38;;;10.10;99.90;;;;;;5075393;28;20044;-88
2024/01/24 15:00:28;;;;;;;31.90;6.07;;;10.10;99.90;;;;;;5079194;28;20024;-88
2024/01/24 15:02:54;;;;;;;51.45;7.80;;;10.10;99.90;;;;;;5087308;28;20036;-86
2024/01/24 15:05:19;;;;;;;32.22;6.93;;;10.10;99.90;;;;;;5086141;28;20539;-89
2024/01/24 15:07:45;;;;;;;35.00;7.45;;;10.10;99.90;;;;;;5091108;28;20115;-88
2024/01/24 15:10:11;;;;;;;37.03;6.63;;;10.10;99.90;;;;;;5080323;28;20059;-89
2024/01/24 15:12:37;;;;;;;33.00;7.10;;;10.10;99.90;;;;;;5084575;28;20048;-92
2024/01/24 15:15:04;;;;;;;39.15;6.93;;;10.40;99.90;;;;;;5088639;28;20093;-91
2024/01/24 15:17:32;;;;;;;36.58;7.40;;;10.10;99.90;;;;;;5076727;28;20276;-91
2024/01/24 15:19:58;;;;;;;34.00;6.80;;;10.10;99.90;;;;;;5077776;28;20544;-90
2024/01/24 15:22:24;;;;;;;33.95;7.93;;;10.10;99.90;;;;;;5083945;28;20015;-88
2024/01/24 15:24:52;;;;;;;40.20;7.13;;;10.10;99.90;;;;;;5100924;28;20020;-88